Time;durP1;ratioP1;P1;durP2;ratioP2;P2;SDS_P1;SDS_P2;PMS_P1;PMS_P2;Temp;Humidity;BMP_temperature;BMP_pressure;BME280_temperature;BME280_humidity;BME280_pressure;Samples;Min_cycle;Max_cycle;Signal;HPM_P1;HPM_P2
2023/03/26 00:04:37;;;;;;;0.57;0.57;;;;;;;8.48;100.00;100040.63;10560986;28;20478;-77
2023/03/26 00:09:39;;;;;;;1.45;0.30;;;;;;;8.36;100.00;100045.47;10506269;28;20044;-77
2023/03/26 00:14:40;;;;;;;0.00;0.00;;;;;;;8.33;100.00;100058.22;10513756;28;20043;-77
2023/03/26 00:19:42;;;;;;;1.83;0.63;;;;;;;8.33;100.00;100061.69;10530395;28;20487;-76
2023/03/26 00:24:47;;;;;;;0.00;0.00;;;;;;;8.44;100.00;100064.47;10553054;28;20044;-77
2023/03/26 00:29:48;;;;;;;0.80;0.60;;;;;;;8.43;100.00;100065.31;10523006;28;20075;-77
2023/03/26 00:34:50;;;;;;;1.10;0.98;;;;;;;8.37;100.00;100052.34;10542889;28;20036;-78
2023/03/26 00:39:53;;;;;;;0.10;0.10;;;;;;;8.46;100.00;100044.81;10527698;28;20495;-78
2023/03/26 00:45:01;;;;;;;0.00;0.00;;;;;;;8.36;100.00;100040.34;10514446;28;20051;-78
2023/03/26 00:50:03;;;;;;;0.00;0.00;;;;;;;8.39;100.00;100035.25;10537749;28;20054;-76
2023/03/26 00:55:05;;;;;;;0.13;0.03;;;;;;;8.35;100.00;100023.22;10526023;28;20052;-77
2023/03/26 01:00:15;;;;;;;0.00;0.00;;;;;;;8.32;100.00;100028.28;10519427;28;20051;-76
2023/03/26 01:05:32;;;;;;;0.00;0.00;;;;;;;8.38;100.00;100018.13;10528094;28;20047;-78
2023/03/26 01:10:37;;;;;;;0.00;0.00;;;;;;;8.39;100.00;100014.72;10542130;28;20499;-78
2023/03/26 01:15:40;;;;;;;3.85;0.88;;;;;;;8.29;100.00;100013.69;10535546;28;20072;-78
2023/03/26 01:20:45;;;;;;;0.00;0.00;;;;;;;8.30;100.00;99999.16;10529660;28;20040;-77
2023/03/26 01:25:56;;;;;;;0.10;0.10;;;;;;;8.36;100.00;99991.59;10522785;28;20047;-78
2023/03/26 01:31:23;;;;;;;1.15;0.50;;;;;;;8.44;100.00;99982.34;10540470;28;20089;-77
2023/03/26 01:36:40;;;;;;;0.15;0.15;;;;;;;8.61;100.00;99968.97;10537710;28;20036;-77
2023/03/26 01:41:46;;;;;;;1.15;0.25;;;;;;;8.61;100.00;99958.69;10570404;27;20043;-77
2023/03/26 01:46:50;;;;;;;0.65;0.15;;;;;;;8.53;100.00;99956.84;10533538;28;20051;-77
2023/03/26 01:51:51;;;;;;;3.67;0.57;;;;;;;8.50;100.00;99951.69;10535210;28;20142;-77
2023/03/26 01:57:20;;;;;;;32.00;0.77;;;;;;;8.57;100.00;99944.94;10542781;28;20047;-81
2023/03/26 02:02:53;;;;;;;0.60;0.60;;;;;;;8.70;100.00;99922.94;10519880;28;20066;-81
2023/03/26 02:07:57;;;;;;;0.52;0.52;;;;;;;8.72;100.00;99916.13;10372063;28;20603;-82
2023/03/26 02:12:59;;;;;;;1.55;1.45;;;;;;;8.73;100.00;99917.84;10545136;28;20063;-81
2023/03/26 02:18:02;;;;;;;0.10;0.10;;;;;;;8.74;100.00;99899.06;10544203;28;20114;-81
2023/03/26 02:23:05;;;;;;;0.20;0.13;;;;;;;8.65;100.00;99894.59;10547606;28;20087;-81
2023/03/26 02:28:07;;;;;;;2.35;1.65;;;;;;;8.55;100.00;99898.72;10549855;27;20040;-82
2023/03/26 02:33:14;;;;;;;0.10;0.10;;;;;;;8.65;100.00;99883.47;10527504;28;20067;-82
2023/03/26 02:38:18;;;;;;;4.20;0.77;;;;;;;8.50;100.00;99890.06;10529809;28;20040;-82
2023/03/26 02:43:21;;;;;;;0.10;0.10;;;;;;;8.60;100.00;99856.88;10531383;28;20404;-82
2023/03/26 02:48:23;;;;;;;3.10;0.70;;;;;;;8.57;100.00;99855.97;10531574;28;20032;-82
2023/03/26 02:53:29;;;;;;;0.13;0.13;;;;;;;8.62;100.00;99852.59;10518734;28;20123;-82
2023/03/26 02:59:00;;;;;;;0.55;0.55;;;;;;;8.61;100.00;99850.88;10529749;28;20544;-82
2023/03/26 03:04:03;;;;;;;1.20;1.17;;;;;;;8.49;100.00;99844.69;10524829;28;20047;-82
2023/03/26 03:09:11;;;;;;;0.10;0.00;;;;;;;8.57;100.00;99830.28;10524516;28;20123;-82
2023/03/26 03:14:19;;;;;;;0.00;0.00;;;;;;;8.62;100.00;99826.91;10581656;28;20028;-82
2023/03/26 03:19:21;;;;;;;0.60;0.20;;;;;;;8.38;100.00;99828.19;10533056;28;20067;-81
2023/03/26 03:24:23;;;;;;;1.08;0.45;;;;;;;8.45;100.00;99813.78;10558561;28;20543;-82
2023/03/26 03:29:24;;;;;;;2.20;0.98;;;;;;;8.38;100.00;99807.66;10516946;28;20076;-82
2023/03/26 03:34:26;;;;;;;1.08;0.65;;;;;;;8.27;100.00;99799.78;10553843;27;20040;-82
2023/03/26 03:39:28;;;;;;;2.20;0.50;;;;;;;8.35;100.00;99787.09;10526753;28;20096;-82
2023/03/26 03:44:30;;;;;;;1.35;0.28;;;;;;;8.43;100.00;99785.53;10518381;28;20097;-82
2023/03/26 03:49:32;;;;;;;7.13;0.30;;;;;;;8.40;100.00;99798.28;10518340;28;20036;-82
2023/03/26 03:54:34;;;;;;;1.13;0.20;;;;;;;8.24;100.00;99795.47;10514380;28;20101;-82
2023/03/26 03:59:43;;;;;;;2.00;0.65;;;;;;;8.33;100.00;99793.91;10539560;28;20044;-82
2023/03/26 04:04:49;;;;;;;0.32;0.32;;;;;;;8.26;100.00;99811.75;10526310;28;20411;-82
2023/03/26 04:09:54;;;;;;;2.13;1.00;;;;;;;8.31;100.00;99803.25;10523665;28;20044;-82
2023/03/26 04:15:22;;;;;;;3.10;1.30;;;;;;;8.33;100.00;99799.03;10497831;28;20052;-82
2023/03/26 04:20:24;;;;;;;0.50;0.50;;;;;;;8.25;100.00;99799.75;10494567;28;20510;-82
2023/03/26 04:25:29;;;;;;;1.48;0.52;;;;;;;8.25;100.00;99789.50;10519688;28;20442;-82
2023/03/26 04:30:41;;;;;;;4.32;2.47;;;;;;;8.17;100.00;99790.22;10496531;28;20063;-82
2023/03/26 04:36:08;;;;;;;2.45;1.55;;;;;;;8.46;100.00;99780.44;10535546;28;20048;-82
2023/03/26 04:41:12;;;;;;;0.00;0.00;;;;;;;8.34;100.00;99775.09;10568841;27;20055;-82
2023/03/26 04:46:26;;;;;;;0.73;0.35;;;;;;;8.22;100.00;99770.63;10528815;28;20135;-82
2023/03/26 04:51:40;;;;;;;0.15;0.10;;;;;;;8.20;100.00;99773.16;10558955;28;20494;-82
2023/03/26 04:57:13;;;;;;;0.00;0.00;;;;;;;8.56;100.00;99769.50;10524680;28;20479;-82
2023/03/26 05:02:38;;;;;;;0.98;0.80;;;;;;;8.50;100.00;99777.13;10550782;28;20101;-82
2023/03/26 05:07:41;;;;;;;16.55;1.00;;;;;;;8.22;100.00;99771.50;10534712;28;20406;-82
2023/03/26 05:12:45;;;;;;;0.63;0.32;;;;;;;8.40;100.00;99759.81;10535990;28;20036;-82
2023/03/26 05:17:51;;;;;;;0.93;0.52;;;;;;;8.35;100.00;99761.44;10543913;28;20036;-82
2023/03/26 05:23:14;;;;;;;0.20;0.20;;;;;;;8.35;100.00;99758.88;10529547;28;20112;-82
2023/03/26 05:28:23;;;;;;;8.20;0.55;;;;;;;8.24;100.00;99739.00;10527796;28;20075;-82
2023/03/26 05:33:31;;;;;;;2.38;1.13;;;;;;;8.51;100.00;99727.50;10527277;28;20058;-82
2023/03/26 05:38:38;;;;;;;0.00;0.00;;;;;;;8.44;100.00;99725.66;10522082;28;20058;-83
2023/03/26 05:43:43;;;;;;;0.25;0.20;;;;;;;8.53;100.00;99724.97;10522072;28;20040;-82
2023/03/26 05:48:50;;;;;;;0.47;0.47;;;;;;;8.67;100.00;99715.75;10568110;28;20101;-83
2023/03/26 05:53:52;;;;;;;0.85;0.38;;;;;;;8.77;100.00;99718.47;10523200;28;20556;-83
2023/03/26 05:59:13;;;;;;;;;;;;;;;8.72;100.00;99715.81;10539319;28;20048;-84
2023/03/26 06:04:39;;;;;;;0.10;0.10;;;;;;;8.72;100.00;99715.81;10539116;28;19982;-83
2023/03/26 06:10:08;;;;;;;0.22;0.17;;;;;;;9.00;100.00;99705.91;10515288;28;20163;-83
2023/03/26 06:15:10;;;;;;;1.30;0.32;;;;;;;8.86;100.00;99713.47;10586357;28;20040;-83
2023/03/26 06:20:21;;;;;;;2.20;0.80;;;;;;;9.08;100.00;99704.31;10510924;28;20052;-83
2023/03/26 06:25:24;;;;;;;0.10;0.05;;;;;;;9.12;100.00;99690.66;10531221;28;20081;-83
2023/03/26 06:30:33;;;;;;;0.22;0.10;;;;;;;9.08;100.00;99685.47;10501116;28;20048;-84
2023/03/26 06:35:42;;;;;;;0.30;0.17;;;;;;;9.11;100.00;99682.94;10526963;28;20044;-83
2023/03/26 06:40:45;;;;;;;1.00;0.13;;;;;;;8.78;100.00;99700.50;10517061;28;20044;-83
2023/03/26 06:46:02;;;;;;;0.00;0.00;;;;;;;8.58;100.00;99687.38;10520875;28;20488;-83
2023/03/26 06:51:12;;;;;;;4.57;0.77;;;;;;;8.70;100.00;99666.16;10527294;28;20048;-83
2023/03/26 06:56:46;;;;;;;0.00;0.00;;;;;;;8.67;100.00;99681.53;10536414;28;20044;-83
2023/03/26 07:02:09;;;;;;;0.52;0.10;;;;;;;8.87;100.00;99667.25;10535017;28;20574;-83
2023/03/26 07:07:29;;;;;;;2.88;0.63;;;;;;;8.63;100.00;99675.50;10558766;27;20122;-83
2023/03/26 07:12:50;;;;;;;;;;;;;;;8.49;100.00;99666.72;10537797;28;20079;-83
2023/03/26 07:17:55;;;;;;;0.10;0.10;;;;;;;8.69;100.00;99659.28;10531819;28;19926;-83
2023/03/26 07:23:01;;;;;;;2.70;0.43;;;;;;;8.78;100.00;99648.28;10533081;28;20048;-83
2023/03/26 07:28:27;;;;;;;1.02;0.88;;;;;;;8.79;100.00;99652.56;10481149;28;20553;-83
2023/03/26 07:33:52;;;;;;;0.00;0.00;;;;;;;8.67;100.00;99655.84;10538463;28;20043;-82
2023/03/26 07:39:41;;;;;;;0.28;0.28;;;;;;;8.93;100.00;99648.50;10513840;28;20044;-82
2023/03/26 07:45:40;;;;;;;1.65;0.40;;;;;;;8.89;100.00;99655.28;10501997;28;20054;-83
2023/03/26 07:51:02;;;;;;;0.10;0.10;;;;;;;9.01;100.00;99656.28;10514819;28;20048;-82
2023/03/26 07:56:33;;;;;;;0.10;0.10;;;;;;;8.91;100.00;99667.25;10549675;28;20047;-82
2023/03/26 08:02:38;;;;;;;1.42;0.25;;;;;;;8.82;100.00;99674.03;10496946;28;20123;-82
2023/03/26 08:08:04;;;;;;;0.95;0.35;;;;;;;9.12;100.00;99664.09;10509654;28;20145;-83
2023/03/26 08:13:19;;;;;;;0.28;0.28;;;;;;;9.04;100.00;99676.88;10496203;28;20129;-83
2023/03/26 08:18:30;;;;;;;0.28;0.28;;;;;;;9.42;100.00;99667.88;10523059;28;20052;-84
2023/03/26 08:23:48;;;;;;;0.00;0.00;;;;;;;9.32;100.00;99677.19;10512217;28;20044;-83
2023/03/26 08:29:02;;;;;;;0.00;0.00;;;;;;;9.47;100.00;99677.38;10511037;28;20550;-84
2023/03/26 08:34:05;;;;;;;0.10;0.10;;;;;;;9.18;100.00;99677.91;10538088;28;20971;-84
2023/03/26 08:39:07;;;;;;;1.25;0.80;;;;;;;9.23;100.00;99679.66;10527906;28;20052;-83
2023/03/26 08:44:42;;;;;;;0.55;0.45;;;;;;;9.40;100.00;99675.56;10565269;28;20048;-84
2023/03/26 08:50:08;;;;;;;0.00;0.00;;;;;;;9.43;100.00;99674.75;10515145;28;20078;-84
2023/03/26 08:55:32;;;;;;;0.00;0.00;;;;;;;9.38;100.00;99672.13;10523750;28;20044;-84
2023/03/26 09:01:07;;;;;;;0.05;0.05;;;;;;;9.65;100.00;99670.66;10532124;28;20047;-78
2023/03/26 09:06:38;;;;;;;1.48;0.80;;;;;;;10.04;100.00;99661.59;10519468;28;20040;-78
2023/03/26 09:12:08;;;;;;;0.00;0.00;;;;;;;9.94;100.00;99667.53;10533414;28;20040;-77
2023/03/26 09:17:28;;;;;;;0.30;0.30;;;;;;;9.89;100.00;99687.19;10529835;28;20044;-78
2023/03/26 09:22:49;;;;;;;0.00;0.00;;;;;;;9.79;100.00;99699.94;10560625;28;20290;-77
2023/03/26 09:28:26;;;;;;;0.15;0.03;;;;;;;9.61;100.00;99699.78;10567089;28;20036;-77
2023/03/26 09:33:52;;;;;;;0.20;0.00;;;;;;;9.59;100.00;99686.03;10462499;28;20050;-77
2023/03/26 09:39:28;;;;;;;0.30;0.28;;;;;;;9.75;100.00;99677.63;10527565;28;20117;-78
2023/03/26 09:44:59;;;;;;;0.45;0.45;;;;;;;10.07;100.00;99668.47;10547217;28;20032;-78
2023/03/26 09:50:28;;;;;;;0.32;0.32;;;;;;;9.30;100.00;99673.72;10539463;28;20036;-77
2023/03/26 09:55:52;;;;;;;1.08;0.90;;;;;;;9.91;100.00;99662.34;10536266;28;20495;-78
2023/03/26 10:01:30;;;;;;;5.20;0.68;;;;;;;9.47;100.00;99656.78;10546126;28;20134;-77
2023/03/26 10:07:00;;;;;;;2.20;1.08;;;;;;;9.77;100.00;99634.78;10570673;28;20396;-79
2023/03/26 10:12:17;;;;;;;7.82;4.15;;;;;;;9.69;100.00;99644.16;10542814;28;20060;-79
2023/03/26 10:17:32;;;;;;;2.42;1.65;;;;;;;9.69;100.00;99623.56;10541973;28;20484;-79
2023/03/26 10:22:58;;;;;;;0.45;0.40;;;;;;;9.69;100.00;99621.84;10525836;28;20051;-78
2023/03/26 10:28:32;;;;;;;0.60;0.47;;;;;;;10.10;100.00;99623.03;10531244;28;20118;-79
2023/03/26 10:33:51;;;;;;;0.90;0.82;;;;;;;9.75;100.00;99626.19;10515309;28;20055;-79
2023/03/26 10:39:11;;;;;;;0.40;0.40;;;;;;;9.44;100.00;99620.75;10554435;28;20101;-79
2023/03/26 10:45:10;;;;;;;0.63;0.20;;;;;;;9.39;100.00;99604.44;10531506;28;20494;-79
2023/03/26 10:50:21;;;;;;;0.22;0.22;;;;;;;9.42;100.00;99596.75;10509196;28;20074;-78
2023/03/26 10:55:34;;;;;;;0.40;0.22;;;;;;;9.52;100.00;99592.56;10544490;28;20066;-79
2023/03/26 11:00:41;;;;;;;0.50;0.50;;;;;;;9.44;100.00;99579.63;10517995;28;20131;-80
2023/03/26 11:06:01;;;;;;;0.60;0.30;;;;;;;8.95;100.00;99582.56;10549416;28;20048;-81
2023/03/26 11:11:20;;;;;;;1.85;1.17;;;;;;;8.68;100.00;99575.38;10516352;28;20387;-81
2023/03/26 11:16:28;;;;;;;1.75;1.17;;;;;;;8.70;100.00;99555.72;10516006;28;20044;-81
2023/03/26 11:21:49;;;;;;;0.35;0.13;;;;;;;8.45;100.00;99573.34;10537374;28;20571;-81
2023/03/26 11:26:57;;;;;;;0.20;0.20;;;;;;;8.56;100.00;99564.13;10540091;28;20163;-80
2023/03/26 11:32:28;;;;;;;0.52;0.52;;;;;;;8.55;100.00;99564.13;10536379;28;20104;-79
2023/03/26 11:37:45;;;;;;;0.20;0.20;;;;;;;8.83;100.00;99547.31;10522705;28;20039;-79
2023/03/26 11:42:54;;;;;;;1.75;1.10;;;;;;;8.94;100.00;99542.31;10536941;28;20036;-81
2023/03/26 11:48:09;;;;;;;;;;;;;;;8.47;100.00;99556.31;10530561;28;20044;-79
2023/03/26 11:53:16;;;;;;;8.07;0.38;;;;;;;8.59;100.00;99559.91;10567248;28;19923;-79
2023/03/26 11:58:30;;;;;;;0.57;0.57;;;;;;;8.25;100.00;99566.25;10523455;28;20078;-79
2023/03/26 12:03:32;;;;;;;0.35;0.28;;;;;;;8.40;100.00;99564.75;10558919;28;20035;-79
2023/03/26 12:08:38;;;;;;;0.55;0.38;;;;;;;8.42;100.00;99573.34;10532986;28;20040;-80
2023/03/26 12:13:51;;;;;;;0.22;0.17;;;;;;;8.37;100.00;99569.84;10570355;27;20048;-79
2023/03/26 12:19:04;;;;;;;0.17;0.17;;;;;;;8.19;100.00;99586.72;10540851;28;20051;-80
2023/03/26 12:24:28;;;;;;;3.83;0.30;;;;;;;8.13;100.00;99596.88;10559834;28;20096;-80
2023/03/26 12:29:33;;;;;;;0.50;0.45;;;;;;;8.11;100.00;99593.44;10540153;28;20080;-79
2023/03/26 12:34:38;;;;;;;0.20;0.20;;;;;;;8.09;100.00;99598.53;10519172;28;20044;-80
2023/03/26 12:39:42;;;;;;;2.10;1.15;;;;;;;8.12;100.00;99605.41;10538256;28;20039;-80
2023/03/26 12:45:05;;;;;;;0.63;0.60;;;;;;;8.17;100.00;99614.03;10528713;28;20505;-79
2023/03/26 12:50:13;;;;;;;1.30;0.20;;;;;;;8.02;100.00;99635.19;10528818;28;20475;-79
2023/03/26 12:55:41;;;;;;;0.82;0.65;;;;;;;8.12;100.00;99649.03;10515224;28;20043;-80
2023/03/26 13:01:14;;;;;;;1.17;0.45;;;;;;;8.07;100.00;99653.22;10545684;27;20040;-79
2023/03/26 13:06:29;;;;;;;0.38;0.17;;;;;;;8.07;100.00;99671.19;10540836;28;20041;-80
2023/03/26 13:11:59;;;;;;;0.55;0.55;;;;;;;8.14;100.00;99673.00;10539607;28;20043;-80
2023/03/26 13:17:24;;;;;;;1.25;0.45;;;;;;;7.97;100.00;99684.69;10570245;27;20043;-79
2023/03/26 13:22:39;;;;;;;0.15;0.10;;;;;;;7.76;100.00;99691.19;10528463;28;20040;-80
2023/03/26 13:27:51;;;;;;;0.10;0.10;;;;;;;7.97;100.00;99698.38;10537252;28;20523;-80
2023/03/26 13:33:04;;;;;;;1.10;0.17;;;;;;;7.78;100.00;99703.19;10546035;28;20078;-81
2023/03/26 13:38:19;;;;;;;0.05;0.05;;;;;;;7.89;100.00;99700.81;10554824;28;20139;-81
2023/03/26 13:43:40;;;;;;;0.77;0.43;;;;;;;7.74;100.00;99711.63;10545777;28;20072;-80
2023/03/26 13:49:02;;;;;;;0.00;0.00;;;;;;;7.86;100.00;99723.81;10515594;28;20067;-80
2023/03/26 13:54:20;;;;;;;0.00;0.00;;;;;;;7.88;100.00;99737.53;10509154;28;20055;-80
2023/03/26 13:59:54;;;;;;;0.80;0.22;;;;;;;7.98;100.00;99732.59;10551754;28;20071;-81
2023/03/26 14:05:03;;;;;;;0.55;0.22;;;;;;;8.14;100.00;99751.66;10561615;27;20411;-81
2023/03/26 14:10:17;;;;;;;0.05;0.05;;;;;;;8.17;100.00;99791.06;10529401;27;20036;-81
2023/03/26 14:15:48;;;;;;;1.35;0.63;;;;;;;8.39;100.00;99824.78;10524980;28;20487;-81
2023/03/26 14:21:06;;;;;;;0.08;0.03;;;;;;;8.50;100.00;99856.69;10562476;27;20035;-80
2023/03/26 14:26:27;;;;;;;0.30;0.10;;;;;;;8.33;100.00;99906.81;10560824;27;20040;-80
2023/03/26 14:31:41;;;;;;;0.00;0.00;;;;;;;8.37;100.00;99954.81;10516235;28;20109;-80
2023/03/26 14:36:58;;;;;;;0.20;0.15;;;;;;;8.35;100.00;99977.88;10539468;28;20483;-80
2023/03/26 14:42:21;;;;;;;0.17;0.10;;;;;;;8.35;100.00;100012.94;10544352;28;20051;-80
2023/03/26 14:47:23;;;;;;;0.00;0.00;;;;;;;8.25;100.00;100037.56;10523334;28;20089;-81
2023/03/26 14:52:44;;;;;;;0.30;0.10;;;;;;;8.17;100.00;100063.03;10530909;28;20047;-80
2023/03/26 14:58:02;;;;;;;6.78;0.55;;;;;;;8.13;100.00;100098.84;10544496;28;20394;-80
2023/03/26 15:03:33;;;;;;;0.55;0.55;;;;;;;8.06;100.00;100115.81;10502594;28;20054;-80
2023/03/26 15:08:52;;;;;;;0.05;0.05;;;;;;;8.10;100.00;100133.00;10538159;28;20044;-80
2023/03/26 15:14:09;;;;;;;0.00;0.00;;;;;;;8.33;100.00;100143.81;10516379;28;20113;-80
2023/03/26 15:19:30;;;;;;;0.00;0.00;;;;;;;8.28;100.00;100159.94;10554136;28;20068;-80
2023/03/26 15:24:59;;;;;;;0.00;0.00;;;;;;;8.36;100.00;100176.38;10537374;28;20502;-80
2023/03/26 15:30:41;;;;;;;0.30;0.30;;;;;;;8.35;100.00;100192.59;10515200;28;20040;-80
2023/03/26 15:36:10;;;;;;;0.00;0.00;;;;;;;8.44;100.00;100185.13;10516071;28;20044;-80
2023/03/26 15:41:40;;;;;;;0.00;0.00;;;;;;;8.14;100.00;100240.03;10529216;28;20082;-80
2023/03/26 15:47:24;;;;;;;0.00;0.00;;;;;;;8.05;100.00;100260.31;10566743;28;20108;-79
2023/03/26 15:53:05;;;;;;;0.38;0.20;;;;;;;7.85;100.00;100278.63;10541975;28;20040;-78
2023/03/26 15:58:39;;;;;;;0.00;0.00;;;;;;;7.71;100.00;100291.06;10497756;28;20067;-78
2023/03/26 16:04:04;;;;;;;0.00;0.00;;;;;;;7.76;100.00;100321.94;10526894;28;20062;-79
2023/03/26 16:09:18;;;;;;;0.00;0.00;;;;;;;7.77;100.00;100326.25;10486378;28;20511;-79
2023/03/26 16:14:47;;;;;;;7.68;0.30;;;;;;;7.48;100.00;100336.56;10494022;28;20051;-78
2023/03/26 16:19:50;;;;;;;0.10;0.10;;;;;;;7.63;100.00;100346.38;10538815;28;20048;-79
2023/03/26 16:25:18;;;;;;;0.00;0.00;;;;;;;7.55;100.00;100352.97;10549741;28;20056;-79
2023/03/26 16:30:30;;;;;;;4.20;0.88;;;;;;;7.41;100.00;100367.94;10512290;28;20049;-78
2023/03/26 16:35:40;;;;;;;0.00;0.00;;;;;;;7.45;100.00;100385.16;10531227;28;20047;-79
2023/03/26 16:40:49;;;;;;;0.10;0.10;;;;;;;7.49;100.00;100392.09;10525083;28;20040;-80
2023/03/26 16:46:04;;;;;;;0.00;0.00;;;;;;;7.41;100.00;100409.81;10546364;28;20044;-79
2023/03/26 16:51:24;;;;;;;0.00;0.00;;;;;;;7.36;100.00;100418.16;10538594;28;20048;-79
2023/03/26 16:56:32;;;;;;;;;;;;;;;7.20;100.00;100404.88;10537379;28;20048;-79
2023/03/26 17:01:44;;;;;;;0.00;0.00;;;;;;;7.19;100.00;100439.00;10547949;28;20217;-78
2023/03/26 17:07:12;;;;;;;0.00;0.00;;;;;;;7.18;100.00;100459.47;10534009;28;20046;-79
2023/03/26 17:12:25;;;;;;;0.00;0.00;;;;;;;7.24;100.00;100468.22;10542449;28;20139;-79
2023/03/26 17:17:51;;;;;;;0.03;0.03;;;;;;;7.05;100.00;100477.00;10546601;28;20085;-77
2023/03/26 17:23:06;;;;;;;0.35;0.32;;;;;;;7.08;100.00;100497.56;10528770;28;20115;-79
2023/03/26 17:28:20;;;;;;;3.00;0.10;;;;;;;6.99;100.00;100504.97;10554589;28;20126;-78
2023/03/26 17:33:25;;;;;;;0.00;0.00;;;;;;;6.86;100.00;100521.59;10570416;28;20048;-78
2023/03/26 17:38:27;;;;;;;0.00;0.00;;;;;;;6.78;100.00;100543.50;10570383;28;20168;-78
2023/03/26 17:43:35;;;;;;;0.00;0.00;;;;;;;6.70;100.00;100596.13;10592238;28;20468;-76
2023/03/26 17:48:44;;;;;;;0.00;0.00;;;;;;;6.51;100.00;100590.34;10527431;28;20048;-77
2023/03/26 17:53:46;;;;;;;0.30;0.17;;;;;;;6.48;100.00;100606.41;10526741;28;20075;-77
2023/03/26 17:58:51;;;;;;;0.00;0.00;;;;;;;6.46;100.00;100623.41;10566613;28;20506;-77
2023/03/26 18:03:56;;;;;;;0.20;0.10;;;;;;;6.35;100.00;100635.81;10543284;28;20083;-77
2023/03/26 18:09:19;;;;;;;0.00;0.00;;;;;;;6.36;100.00;100646.91;10526268;28;20052;-76
2023/03/26 18:14:40;;;;;;;0.00;0.00;;;;;;;6.30;100.00;100656.91;10543087;28;20039;-77
2023/03/26 18:20:05;;;;;;;1.75;0.57;;;;;;;6.18;100.00;100673.50;10497188;28;20044;-77
2023/03/26 18:25:21;;;;;;;0.00;0.00;;;;;;;6.20;100.00;100678.69;10509200;28;20078;-77
2023/03/26 18:30:24;;;;;;;1.58;0.10;;;;;;;6.05;100.00;100691.72;10533130;28;20504;-76
2023/03/26 18:35:37;;;;;;;0.00;0.00;;;;;;;5.99;100.00;100709.38;10524996;28;20487;-77
2023/03/26 18:40:44;;;;;;;0.00;0.00;;;;;;;5.97;100.00;100726.28;10525100;28;20406;-77
2023/03/26 18:45:50;;;;;;;0.00;0.00;;;;;;;5.95;100.00;100741.59;10551367;28;20043;-76
2023/03/26 18:51:00;;;;;;;3.50;1.25;;;;;;;5.85;100.00;100755.66;10524623;28;20040;-77
2023/03/26 18:56:26;;;;;;;0.28;0.28;;;;;;;5.82;100.00;100763.19;10561494;28;20077;-77
2023/03/26 19:01:31;;;;;;;0.00;0.00;;;;;;;5.67;100.00;100778.75;10546367;28;20380;-76
2023/03/26 19:06:37;;;;;;;0.15;0.15;;;;;;;5.40;100.00;100792.03;10540882;28;20388;-77
2023/03/26 19:11:41;;;;;;;1.10;0.45;;;;;;;5.13;100.00;100790.78;10523823;28;20414;-77
2023/03/26 19:16:52;;;;;;;0.30;0.10;;;;;;;5.02;100.00;100793.75;10542347;28;20510;-77
2023/03/26 19:21:55;;;;;;;0.00;0.00;;;;;;;5.08;100.00;100801.69;10533563;28;20130;-78
2023/03/26 19:27:00;;;;;;;0.22;0.10;;;;;;;4.80;100.00;100811.41;10523430;28;20040;-77
2023/03/26 19:32:05;;;;;;;0.35;0.25;;;;;;;4.70;100.00;100823.72;10547783;28;20052;-79
2023/03/26 19:37:25;;;;;;;0.00;0.00;;;;;;;4.73;100.00;100823.84;10563998;28;20047;-78
2023/03/26 19:42:31;;;;;;;0.10;0.10;;;;;;;4.72;100.00;100828.88;10522970;28;20080;-78
2023/03/26 19:47:46;;;;;;;0.75;0.75;;;;;;;4.65;100.00;100829.38;10522517;28;20302;-77
2023/03/26 19:53:10;;;;;;;0.65;0.30;;;;;;;4.69;100.00;100834.72;10523383;28;20082;-77
2023/03/26 19:58:18;;;;;;;1.17;0.15;;;;;;;4.54;100.00;100847.59;10494227;28;20052;-77
2023/03/26 20:03:27;;;;;;;0.00;0.00;;;;;;;4.59;100.00;100845.25;10518556;28;20425;-77
2023/03/26 20:08:29;;;;;;;0.40;0.40;;;;;;;4.49;100.00;100866.91;10521414;28;20044;-77
2023/03/26 20:13:31;;;;;;;0.03;0.03;;;;;;;4.59;100.00;100871.69;10522079;28;20388;-77
2023/03/26 20:18:36;;;;;;;4.18;0.30;;;;;;;4.81;100.00;100889.69;10521786;28;20048;-77
2023/03/26 20:23:39;;;;;;;1.75;0.32;;;;;;;4.52;100.00;100907.91;10538658;28;20063;-77
2023/03/26 20:28:41;;;;;;;1.25;0.65;;;;;;;4.48;100.00;100915.31;10523417;28;20040;-77
2023/03/26 20:33:53;;;;;;;0.00;0.00;;;;;;;4.27;100.00;100916.84;10539739;28;20040;-77
2023/03/26 20:38:56;;;;;;;3.10;1.20;;;;;;;3.87;100.00;100903.66;10556415;28;20080;-78
2023/03/26 20:43:57;;;;;;;0.15;0.15;;;;;;;3.69;100.00;100896.78;10582056;28;20058;-77
2023/03/26 20:48:59;;;;;;;0.88;0.40;;;;;;;3.70;100.00;100896.00;10562732;28;20051;-77
2023/03/26 20:54:01;;;;;;;0.30;0.30;;;;;;;3.62;100.00;100889.59;10504908;28;20052;-77
2023/03/26 20:59:04;;;;;;;0.30;0.30;;;;;;;3.50;100.00;100892.38;10539524;28;20123;-77
2023/03/26 21:04:12;;;;;;;0.43;0.32;;;;;;;3.68;100.00;100902.72;10521421;28;20044;-77
2023/03/26 21:09:22;;;;;;;0.05;0.05;;;;;;;3.67;100.00;100906.03;10542542;28;20051;-77
2023/03/26 21:14:40;;;;;;;0.00;0.00;;;;;;;3.71;100.00;100913.03;10541055;28;20097;-77
2023/03/26 21:19:43;;;;;;;0.47;0.10;;;;;;;3.58;100.00;100920.81;10530315;28;20484;-77
2023/03/26 21:25:37;;;;;;;0.00;0.00;;;;;;;3.53;100.00;100924.81;10562242;28;20043;-78
2023/03/26 21:30:39;;;;;;;0.00;0.00;;;;;;;3.43;100.00;100931.94;10541003;28;20475;-77
2023/03/26 21:35:41;;;;;;;0.00;0.00;;;;;;;3.41;100.00;100933.50;10549784;28;20407;-78
2023/03/26 21:40:43;;;;;;;1.45;0.13;;;;;;;3.45;100.00;100945.63;10537449;28;20097;-77
2023/03/26 21:45:58;;;;;;;0.00;0.00;;;;;;;3.57;100.00;100959.81;10527350;28;20407;-78
2023/03/26 21:51:03;;;;;;;0.00;0.00;;;;;;;3.34;100.00;100956.88;10515023;28;20083;-79
2023/03/26 21:56:26;;;;;;;0.25;0.25;;;;;;;3.25;100.00;100971.63;10532228;28;20105;-78
2023/03/26 22:01:59;;;;;;;0.00;0.00;;;;;;;3.17;100.00;100972.06;10548358;28;20050;-78
2023/03/26 22:07:10;;;;;;;0.00;0.00;;;;;;;3.00;100.00;100995.72;10557573;27;20483;-78
2023/03/26 22:12:12;;;;;;;0.20;0.17;;;;;;;2.68;100.00;100994.69;10526505;28;20056;-77
2023/03/26 22:17:14;;;;;;;0.00;0.00;;;;;;;2.69;100.00;100996.44;10520772;28;20400;-78
2023/03/26 22:22:15;;;;;;;0.00;0.00;;;;;;;2.43;100.00;100985.59;10484251;28;20045;-78
2023/03/26 22:27:17;;;;;;;1.55;0.52;;;;;;;2.58;100.00;100998.34;10502066;28;20048;-78
2023/03/26 22:32:18;;;;;;;0.00;0.00;;;;;;;2.69;100.00;101010.03;10514333;28;20075;-79
2023/03/26 22:37:22;;;;;;;0.00;0.00;;;;;;;2.57;100.00;101028.78;10540842;28;20101;-78
2023/03/26 22:42:26;;;;;;;0.10;0.10;;;;;;;2.48;100.00;101039.28;10554721;28;20445;-78
2023/03/26 22:47:29;;;;;;;0.00;0.00;;;;;;;2.39;100.00;101044.69;10562223;28;20426;-79
2023/03/26 22:52:35;;;;;;;0.00;0.00;;;;;;;2.32;100.00;101045.09;10526386;28;20052;-78
2023/03/26 22:57:37;;;;;;;0.08;0.08;;;;;;;2.12;100.00;101044.75;10524379;28;20050;-78
2023/03/26 23:02:39;;;;;;;0.00;0.00;;;;;;;2.12;100.00;101062.53;10530896;28;20491;-77
2023/03/26 23:07:41;;;;;;;0.00;0.00;;;;;;;2.07;100.00;101074.06;10542902;28;20399;-79
2023/03/26 23:12:42;;;;;;;0.20;0.20;;;;;;;2.00;100.00;101080.44;10547846;28;20054;-77
2023/03/26 23:17:44;;;;;;;0.00;0.00;;;;;;;1.94;100.00;101090.19;10562233;28;20036;-78
2023/03/26 23:22:55;;;;;;;0.00;0.00;;;;;;;2.12;100.00;101087.97;10541438;28;20528;-78
2023/03/26 23:27:57;;;;;;;0.00;0.00;;;;;;;2.06;100.00;101101.16;10523475;28;20044;-78
2023/03/26 23:33:00;;;;;;;0.00;0.00;;;;;;;1.86;100.00;101110.03;10536183;28;20048;-79
2023/03/26 23:38:02;;;;;;;0.00;0.00;;;;;;;1.75;100.00;101123.69;10568851;28;20050;-79
2023/03/26 23:43:04;;;;;;;0.00;0.00;;;;;;;1.61;100.00;101130.44;10525149;28;20045;-78
2023/03/26 23:48:07;;;;;;;0.00;0.00;;;;;;;1.49;100.00;101130.50;10518889;28;20048;-78
2023/03/26 23:53:08;;;;;;;0.00;0.00;;;;;;;1.38;100.00;101136.50;10558069;28;20106;-78
2023/03/26 23:58:10;;;;;;;0.00;0.00;;;;;;;1.53;100.00;101149.34;10555173;28;20101;-77
